createdAt,value
2018-10-16T00:00:52.770Z,100605.97
2018-10-16T00:03:22.275Z,100606.97
2018-10-16T00:05:51.912Z,100600.41
2018-10-16T00:08:21.488Z,100605.56
2018-10-16T00:10:51.051Z,100597.64
2018-10-16T00:13:20.574Z,100609.60
2018-10-16T00:15:50.274Z,100600.83
2018-10-16T00:18:19.797Z,100602.97
2018-10-16T00:20:49.355Z,100604.28
2018-10-16T00:23:18.891Z,100608.24
2018-10-16T00:25:48.474Z,100604.88
2018-10-16T00:28:24.255Z,100597.13
2018-10-16T00:30:53.866Z,100593.69
2018-10-16T00:33:23.566Z,100597.05
2018-10-16T00:35:53.149Z,100600.95
2018-10-16T00:38:22.712Z,100595.62
2018-10-16T00:40:52.288Z,100594.38
2018-10-16T00:43:21.807Z,100596.36
2018-10-16T00:45:51.373Z,100603.52
2018-10-16T00:48:20.955Z,100600.37
2018-10-16T00:50:50.507Z,100599.94
2018-10-16T00:53:20.091Z,100595.73
2018-10-16T00:55:49.618Z,100601.58
2018-10-16T00:58:19.178Z,100596.84
2018-10-16T01:00:48.714Z,100588.55
2018-10-16T01:03:18.335Z,100584.86
2018-10-16T01:05:47.843Z,100582.30
2018-10-16T01:08:17.455Z,100578.38
2018-10-16T01:10:46.975Z,100578.27
2018-10-16T01:13:16.538Z,100583.33
2018-10-16T01:15:46.049Z,100583.55
2018-10-16T01:18:15.542Z,100580.11
2018-10-16T01:20:45.079Z,100576.25
2018-10-16T01:23:14.649Z,100579.95
2018-10-16T01:25:44.177Z,100574.45
2018-10-16T01:28:13.727Z,100579.01
2018-10-16T01:30:43.294Z,100572.66
2018-10-16T01:33:12.862Z,100575.63
2018-10-16T01:35:42.354Z,100567.62
2018-10-16T01:38:11.916Z,100572.21
2018-10-16T01:43:16.152Z,100560.09
2018-10-16T01:45:45.781Z,100562.22
2018-10-16T01:48:15.399Z,100565.19
2018-10-16T01:50:44.948Z,100565.63
2018-10-16T01:53:14.482Z,100558.77
2018-10-16T01:55:43.981Z,100555.98
2018-10-16T01:58:13.611Z,100554.02
2018-10-16T02:00:43.111Z,100554.78
2018-10-16T02:03:12.703Z,100553.64
2018-10-16T02:05:42.283Z,100550.54
2018-10-16T02:08:11.786Z,100555.37
2018-10-16T02:10:41.342Z,100555.31
2018-10-16T02:13:10.911Z,100550.62
2018-10-16T02:15:40.460Z,100554.64
2018-10-16T02:18:10.023Z,100551.60
2018-10-16T02:20:39.575Z,100553.44
2018-10-16T02:23:09.118Z,100544.14
2018-10-16T02:25:38.702Z,100548.15
2018-10-16T02:28:08.246Z,100546.50
2018-10-16T02:30:37.900Z,100552.45
2018-10-16T02:33:07.556Z,100549.66
2018-10-16T02:35:37.100Z,100547.16
2018-10-16T02:38:06.794Z,100541.66
2018-10-16T02:40:36.455Z,100543.77
2018-10-16T02:43:06.333Z,100549.20
2018-10-16T02:45:35.919Z,100543.70
2018-10-16T02:48:05.665Z,100545.28
2018-10-16T02:50:35.234Z,100550.94
2018-10-16T02:53:04.962Z,100548.75
2018-10-16T02:55:34.491Z,100550.87
2018-10-16T02:58:04.270Z,100553.58
2018-10-16T03:00:33.811Z,100554.94
2018-10-16T03:03:03.375Z,100559.27
2018-10-16T03:05:32.894Z,100562.73
2018-10-16T03:08:02.499Z,100557.52
2018-10-16T03:10:32.051Z,100552.84
2018-10-16T03:13:01.637Z,100553.59
2018-10-16T03:15:31.178Z,100560.60
2018-10-16T03:18:00.765Z,100563.25
2018-10-16T03:20:30.323Z,100557.21
2018-10-16T03:22:59.822Z,100562.03
2018-10-16T03:25:29.367Z,100563.83
2018-10-16T03:27:58.883Z,100562.72
2018-10-16T03:30:28.518Z,100560.22
2018-10-16T03:32:58.150Z,100560.14
2018-10-16T03:35:27.675Z,100554.32
2018-10-16T03:37:57.207Z,100555.90
2018-10-16T03:40:26.763Z,100554.78
2018-10-16T03:42:56.323Z,100551.14
2018-10-16T03:45:25.848Z,100554.92
2018-10-16T03:47:55.423Z,100548.03
2018-10-16T03:50:24.970Z,100556.64
2018-10-16T03:52:54.496Z,100557.39
2018-10-16T03:55:24.031Z,100556.71
2018-10-16T03:57:53.562Z,100561.53
2018-10-16T04:00:23.108Z,100552.99
2018-10-16T04:02:52.646Z,100552.59
2018-10-16T04:05:22.216Z,100557.66
2018-10-16T04:07:51.694Z,100567.66
2018-10-16T04:10:21.234Z,100560.80
2018-10-16T04:12:50.742Z,100561.05
2018-10-16T04:15:20.271Z,100557.19
2018-10-16T04:17:49.917Z,100572.33
2018-10-16T04:20:19.558Z,100573.69
2018-10-16T04:22:50.013Z,100572.05
2018-10-16T04:25:19.523Z,100562.75
2018-10-16T04:27:49.054Z,100572.47
2018-10-16T04:30:18.590Z,100564.86
2018-10-16T04:32:48.081Z,100570.28
2018-10-16T04:35:18.164Z,100573.00
2018-10-16T04:37:47.938Z,100567.78
2018-10-16T04:40:17.508Z,100572.68
2018-10-16T04:42:47.030Z,100571.86
2018-10-16T04:45:16.552Z,100573.21
2018-10-16T04:47:46.097Z,100575.93
2018-10-16T04:50:15.634Z,100577.82
2018-10-16T04:52:45.200Z,100580.75
2018-10-16T04:55:14.814Z,100574.57
2018-10-16T04:57:44.342Z,100578.97
2018-10-16T05:00:13.918Z,100581.97
2018-10-16T05:02:43.591Z,100584.76
2018-10-16T05:05:21.394Z,100581.30
2018-10-16T05:07:51.667Z,100578.70
2018-10-16T05:10:21.835Z,100579.59
2018-10-16T05:12:51.652Z,100587.28
2018-10-16T05:15:27.027Z,100589.86
2018-10-16T05:17:56.926Z,100591.40
2018-10-16T05:20:26.555Z,100598.34
2018-10-16T05:22:56.858Z,100599.56
2018-10-16T05:25:27.642Z,100600.24
2018-10-16T05:27:57.783Z,100598.74
2018-10-16T05:30:27.530Z,100595.38
2018-10-16T05:32:57.074Z,100598.03
2018-10-16T05:35:26.634Z,100596.39
2018-10-16T05:37:56.319Z,100488.50
2018-10-16T05:40:25.847Z,100596.94
2018-10-16T05:42:55.459Z,100602.28
2018-10-16T05:45:26.042Z,100607.41
2018-10-16T05:47:55.773Z,100615.07
2018-10-16T05:50:25.351Z,100612.01
2018-10-16T05:52:54.959Z,100607.56
2018-10-16T05:55:24.710Z,100616.72
2018-10-16T05:57:54.316Z,100614.09
2018-10-16T06:00:46.388Z,100616.14
2018-10-16T06:03:15.951Z,100617.36
2018-10-16T06:05:45.598Z,100621.48
2018-10-16T06:08:15.124Z,100627.58
2018-10-16T06:10:44.791Z,100630.05
2018-10-16T06:13:14.514Z,100632.55
2018-10-16T06:15:44.446Z,100622.28
2018-10-16T06:18:14.023Z,100641.74
2018-10-16T06:20:43.691Z,100634.91
2018-10-16T06:23:13.225Z,100636.25
2018-10-16T06:25:42.814Z,100640.28
2018-10-16T06:28:23.491Z,100642.09
2018-10-16T06:30:53.151Z,100642.60
2018-10-16T06:33:31.143Z,100645.36
2018-10-16T06:36:00.708Z,100641.26
2018-10-16T06:38:30.254Z,100650.19
2018-10-16T06:40:59.971Z,100652.08
2018-10-16T06:43:30.471Z,100645.38
2018-10-16T06:46:00.869Z,100654.03
2018-10-16T06:48:30.820Z,100651.46
2018-10-16T06:51:00.135Z,100654.05
2018-10-16T06:53:29.703Z,100653.67
2018-10-16T06:55:59.294Z,100654.88
2018-10-16T06:58:28.907Z,100656.12
2018-10-16T07:00:58.500Z,100655.97
2018-10-16T07:03:28.018Z,100657.22
2018-10-16T07:05:57.593Z,100656.78
2018-10-16T07:08:27.130Z,100655.47
2018-10-16T07:10:56.727Z,100652.23
2018-10-16T07:13:26.348Z,100655.88
2018-10-16T07:15:55.878Z,100656.52
2018-10-16T07:18:25.447Z,100651.17
2018-10-16T07:20:55.020Z,100657.59
2018-10-16T07:23:24.670Z,100650.56
2018-10-16T07:25:54.181Z,100650.11
2018-10-16T07:28:23.927Z,100648.51
2018-10-16T07:30:53.554Z,100642.28
2018-10-16T07:33:23.088Z,100642.62
2018-10-16T07:35:52.640Z,100646.81
2018-10-16T07:38:22.242Z,100647.41
2018-10-16T07:40:51.794Z,100652.98
2018-10-16T07:43:21.391Z,100639.87
2018-10-16T07:45:50.951Z,100642.38
2018-10-16T07:48:20.532Z,100639.96
2018-10-16T07:50:50.113Z,100638.09
2018-10-16T07:53:19.618Z,100634.05
2018-10-16T07:55:49.180Z,100636.58
2018-10-16T07:58:18.785Z,100636.35
2018-10-16T08:00:48.431Z,100633.11
2018-10-16T08:03:17.974Z,100629.87
2018-10-16T08:05:47.522Z,100628.58
2018-10-16T08:08:17.035Z,100625.03
2018-10-16T08:10:46.673Z,100626.41
2018-10-16T08:13:16.224Z,100631.66
2018-10-16T08:15:45.820Z,100630.33
2018-10-16T08:18:15.404Z,100621.84
2018-10-16T08:20:44.943Z,100622.41
2018-10-16T08:23:14.508Z,100622.98
2018-10-16T08:25:44.000Z,100612.30
2018-10-16T08:28:13.543Z,100613.41
2018-10-16T08:30:43.106Z,100611.22
2018-10-16T08:33:12.711Z,100608.22
2018-10-16T08:35:42.271Z,100612.64
2018-10-16T08:38:24.603Z,100612.11
2018-10-16T08:40:54.633Z,100607.73
2018-10-16T08:43:39.051Z,100602.23
2018-10-16T08:46:19.310Z,100606.64
2018-10-16T08:49:00.331Z,100602.52
2018-10-16T08:51:55.580Z,100603.92
2018-10-16T08:54:25.200Z,100604.80
2018-10-16T08:56:54.814Z,100604.52
2018-10-16T08:59:24.375Z,100605.06
2018-10-16T09:01:53.918Z,100449.17
2018-10-16T09:04:23.530Z,100506.36
2018-10-16T09:06:53.154Z,100598.50
2018-10-16T09:09:22.735Z,100596.84
2018-10-16T09:11:52.366Z,100593.55
2018-10-16T09:14:21.937Z,100593.81
2018-10-16T09:16:51.458Z,100592.95
2018-10-16T09:19:21.023Z,100589.94
2018-10-16T09:21:50.561Z,100587.74
2018-10-16T09:24:20.154Z,100586.06
2018-10-16T09:26:49.699Z,100587.43
2018-10-16T09:29:19.291Z,100583.30
2018-10-16T09:31:48.795Z,100577.52
2018-10-16T09:34:18.368Z,100569.81
2018-10-16T09:36:47.877Z,100566.20
2018-10-16T09:39:18.251Z,100562.62
2018-10-16T09:41:47.784Z,100563.47
2018-10-16T09:44:17.371Z,100560.41
2018-10-16T09:46:46.980Z,100551.56
2018-10-16T09:49:16.790Z,100562.53
2018-10-16T09:51:46.591Z,100558.12
2018-10-16T09:54:16.158Z,100545.13
2018-10-16T09:56:45.733Z,100544.55
2018-10-16T09:59:15.347Z,100542.88
2018-10-16T10:01:48.625Z,100537.91
2018-10-16T10:04:18.228Z,100540.91
2018-10-16T10:06:47.859Z,100535.66
2018-10-16T10:09:17.766Z,100535.39
2018-10-16T10:11:47.651Z,100529.02
2018-10-16T10:14:17.267Z,100529.02
2018-10-16T10:16:46.884Z,100529.55
2018-10-16T10:19:16.506Z,100520.98
2018-10-16T10:21:46.076Z,100523.15
2018-10-16T10:24:15.651Z,100516.02
2018-10-16T10:26:45.191Z,100518.17
2018-10-16T10:29:14.790Z,100517.06
2018-10-16T10:31:44.407Z,100508.77
2018-10-16T10:34:13.948Z,100514.81
2018-10-16T10:36:44.210Z,100513.17
2018-10-16T10:39:13.769Z,100508.48
2018-10-16T10:41:44.025Z,100505.39
2018-10-16T10:44:13.527Z,100498.22
2018-10-16T10:46:43.139Z,100504.52
2018-10-16T10:49:12.687Z,100500.12
2018-10-16T10:51:42.367Z,100493.55
2018-10-16T10:54:11.765Z,100489.11
2018-10-16T10:56:41.398Z,100481.91
2018-10-16T10:59:10.921Z,100486.04
2018-10-16T11:01:40.504Z,100387.08
2018-10-16T11:04:10.051Z,100489.87
2018-10-16T11:06:39.625Z,100480.50
2018-10-16T11:09:11.404Z,100473.86
2018-10-16T11:11:41.334Z,100471.91
2018-10-16T11:14:10.853Z,100468.31
2018-10-16T11:16:40.416Z,100466.09
2018-10-16T11:19:10.054Z,100465.24
2018-10-16T11:21:40.375Z,100470.50
2018-10-16T11:24:09.960Z,100468.25
2018-10-16T11:26:39.480Z,100468.81
2018-10-16T11:29:09.041Z,100459.70
2018-10-16T11:31:38.555Z,100464.64
2018-10-16T11:34:08.184Z,100458.31
2018-10-16T11:36:37.979Z,100450.61
2018-10-16T11:39:09.935Z,100454.99
2018-10-16T11:41:39.557Z,100456.09
2018-10-16T11:44:11.065Z,100447.53
2018-10-16T11:46:41.821Z,100443.93
2018-10-16T11:49:11.456Z,100447.22
2018-10-16T11:51:41.063Z,100446.38
2018-10-16T11:54:10.664Z,100448.00
2018-10-16T11:56:40.211Z,100451.86
2018-10-16T11:59:09.850Z,100440.54
2018-10-16T12:01:39.425Z,100436.12
2018-10-16T12:04:08.955Z,100444.36
2018-10-16T12:06:38.547Z,100436.08
2018-10-16T12:09:09.850Z,100434.42
2018-10-16T12:11:40.219Z,100436.05
2018-10-16T12:14:10.106Z,100434.67
2018-10-16T12:16:43.778Z,100431.59
2018-10-16T12:19:19.524Z,100434.63
2018-10-16T12:21:49.660Z,100433.25
2018-10-16T12:24:19.316Z,100429.64
2018-10-16T12:26:48.916Z,100432.44
2018-10-16T12:29:18.518Z,100425.75
2018-10-16T12:31:48.054Z,100427.69
2018-10-16T12:34:17.675Z,100430.41
2018-10-16T12:36:47.257Z,100424.33
2018-10-16T12:39:16.849Z,100323.78
2018-10-16T12:41:46.787Z,100422.91
2018-10-16T12:44:16.367Z,100421.53
2018-10-16T12:46:45.915Z,100421.53
2018-10-16T12:49:15.562Z,100304.56
2018-10-16T12:51:45.075Z,100418.45
2018-10-16T12:54:14.668Z,100420.92
2018-10-16T12:56:44.229Z,100416.22
2018-10-16T12:59:13.876Z,100418.66
2018-10-16T13:01:43.990Z,100421.94
2018-10-16T13:04:13.483Z,100417.23
2018-10-16T13:06:43.974Z,100416.42
2018-10-16T13:09:13.719Z,100403.72
2018-10-16T13:11:43.463Z,100399.28
2018-10-16T13:14:13.099Z,100403.72
2018-10-16T13:16:42.723Z,100404.81
2018-10-16T13:19:12.223Z,100400.09
2018-10-16T13:21:42.370Z,100403.42
2018-10-16T13:24:11.945Z,100410.66
2018-10-16T13:26:41.517Z,100401.23
2018-10-16T13:29:11.127Z,100394.34
2018-10-16T13:31:40.685Z,100396.53
2018-10-16T13:34:10.332Z,100391.58
2018-10-16T13:36:39.863Z,100308.92
2018-10-16T13:39:09.598Z,100397.39
2018-10-16T13:41:39.163Z,100392.48
2018-10-16T13:44:09.553Z,100390.86
2018-10-16T13:46:39.050Z,100392.80
2018-10-16T13:49:08.578Z,100390.94
2018-10-16T13:51:38.158Z,100385.14
2018-10-16T13:54:07.696Z,100384.36
2018-10-16T13:56:37.281Z,100386.55
2018-10-16T13:59:06.890Z,100263.55
2018-10-16T14:01:36.410Z,100270.16
2018-10-16T14:04:06.075Z,100376.66
2018-10-16T14:06:35.789Z,100379.17
2018-10-16T14:09:07.667Z,100384.17
2018-10-16T14:11:37.310Z,100377.34
2018-10-16T14:14:06.977Z,100377.39
2018-10-16T14:16:36.552Z,100376.86
2018-10-16T14:19:06.327Z,100378.27
2018-10-16T14:21:36.570Z,100380.50
2018-10-16T14:24:07.178Z,100376.16
2018-10-16T14:26:36.773Z,100332.87
2018-10-16T14:29:06.662Z,100370.40
2018-10-16T14:31:36.247Z,100377.05
2018-10-16T14:34:05.960Z,100369.37
2018-10-16T14:36:35.489Z,100284.49
2018-10-16T14:39:07.023Z,100366.66
2018-10-16T14:41:36.654Z,100365.34
2018-10-16T14:44:06.832Z,100368.41
2018-10-16T14:46:36.747Z,100365.98
2018-10-16T14:49:06.456Z,100369.02
2018-10-16T14:51:36.360Z,100375.38
2018-10-16T14:54:06.022Z,100372.93
2018-10-16T14:56:35.827Z,100372.18
2018-10-16T14:59:05.447Z,100378.53
2018-10-16T15:01:34.991Z,100378.84
2018-10-16T15:04:04.611Z,100383.57
2018-10-16T15:06:34.155Z,100381.16
2018-10-16T15:09:04.332Z,100380.08
2018-10-16T15:11:33.840Z,100377.38
2018-10-16T15:14:03.403Z,100378.25
2018-10-16T15:16:33.054Z,100378.02
2018-10-16T15:19:02.635Z,100385.77
2018-10-16T15:21:32.139Z,100389.38
2018-10-16T15:24:01.741Z,100393.84
2018-10-16T15:26:31.263Z,100390.59
2018-10-16T15:29:00.763Z,100394.76
2018-10-16T15:31:30.342Z,100395.35
2018-10-16T15:33:59.915Z,100390.99
2018-10-16T15:36:29.518Z,100391.03
2018-10-16T15:38:59.024Z,100396.04
2018-10-16T15:41:28.570Z,100395.52
2018-10-16T15:43:58.343Z,100399.67
2018-10-16T15:46:28.130Z,100396.68
2018-10-16T15:48:57.649Z,100396.18
2018-10-16T15:51:27.222Z,100400.32
2018-10-16T15:53:56.807Z,100400.61
2018-10-16T15:56:27.248Z,100398.69
2018-10-16T15:58:56.859Z,100397.58
2018-10-16T16:01:26.831Z,100407.19
2018-10-16T16:03:56.408Z,100405.29
2018-10-16T16:06:25.958Z,100413.78
2018-10-16T16:08:55.547Z,100411.88
2018-10-16T16:11:25.054Z,100420.34
2018-10-16T16:13:54.566Z,100420.91
2018-10-16T16:16:24.117Z,100425.82
2018-10-16T16:18:53.621Z,100420.59
2018-10-16T16:21:23.191Z,100423.28
2018-10-16T16:23:52.703Z,100428.73
2018-10-16T16:26:22.356Z,100429.25
2018-10-16T16:28:51.848Z,100427.31
2018-10-16T16:31:21.331Z,100428.64
2018-10-16T16:33:50.872Z,100433.81
2018-10-16T16:36:20.402Z,100426.91
2018-10-16T16:38:49.946Z,100432.08
2018-10-16T16:41:19.567Z,100439.73
2018-10-16T16:43:49.211Z,100445.16
2018-10-16T16:46:18.671Z,100439.61
2018-10-16T16:48:48.236Z,100440.40
2018-10-16T16:51:17.748Z,100442.79
2018-10-16T16:53:47.360Z,100442.17
2018-10-16T16:56:16.856Z,100445.99
2018-10-16T16:58:46.402Z,100454.41
2018-10-16T17:01:15.899Z,100457.09
2018-10-16T17:03:45.462Z,100452.36
2018-10-16T17:06:15.018Z,100456.67
2018-10-16T17:08:44.553Z,100457.98
2018-10-16T17:11:14.143Z,100449.72
2018-10-16T17:13:43.662Z,100450.50
2018-10-16T17:16:13.227Z,100447.42
2018-10-16T17:18:42.775Z,100448.73
2018-10-16T17:21:12.314Z,100452.49
2018-10-16T17:23:41.803Z,100448.59
2018-10-16T17:26:11.619Z,100456.21
2018-10-16T17:28:40.920Z,100451.50
2018-10-16T17:31:10.503Z,100455.22
2018-10-16T17:33:40.047Z,100456.24
2018-10-16T17:36:09.552Z,100456.16
2018-10-16T17:38:39.115Z,100458.03
2018-10-16T17:41:08.625Z,100462.88
2018-10-16T17:43:38.162Z,100464.19
2018-10-16T17:46:07.911Z,100463.02
2018-10-16T17:48:37.484Z,100465.14
2018-10-16T17:51:07.029Z,100461.51
2018-10-16T17:53:36.602Z,100460.91
2018-10-16T17:56:06.508Z,100458.39
2018-10-16T17:58:36.046Z,100460.77
2018-10-16T18:01:05.903Z,100468.05
2018-10-16T18:03:35.582Z,100461.98
2018-10-16T18:06:05.143Z,100475.84
2018-10-16T18:08:34.699Z,100470.59
2018-10-16T18:11:04.242Z,100469.44
2018-10-16T18:13:33.795Z,100473.17
2018-10-16T18:16:03.344Z,100474.17
2018-10-16T18:18:32.834Z,100472.77
2018-10-16T18:21:02.470Z,100473.25
2018-10-16T18:23:31.964Z,100473.80
2018-10-16T18:26:01.524Z,100471.61
2018-10-16T18:28:31.015Z,100476.05
2018-10-16T18:31:00.571Z,100479.36
2018-10-16T18:33:30.128Z,100484.61
2018-10-16T18:35:59.668Z,100487.92
2018-10-16T18:38:29.212Z,100490.89
2018-10-16T18:40:58.786Z,100492.53
2018-10-16T18:43:28.343Z,100496.05
2018-10-16T18:45:57.887Z,100494.10
2018-10-16T18:48:27.453Z,100501.78
2018-10-16T18:50:57.077Z,100498.71
2018-10-16T18:53:26.555Z,100507.38
2018-10-16T18:55:56.063Z,100511.41
2018-10-16T18:58:25.650Z,100511.58
2018-10-16T19:00:55.172Z,100515.64
2018-10-16T19:03:24.711Z,100522.13
2018-10-16T19:05:54.307Z,100523.99
2018-10-16T19:08:23.815Z,100526.62
2018-10-16T19:10:53.355Z,100524.63
2018-10-16T19:13:23.036Z,100520.15
2018-10-16T19:15:52.607Z,100526.59
2018-10-16T19:18:22.176Z,100535.23
2018-10-16T19:20:51.750Z,100535.95
2018-10-16T19:23:21.247Z,100542.45
2018-10-16T19:25:50.782Z,100541.27
2018-10-16T19:28:20.274Z,100543.42
2018-10-16T19:30:49.927Z,100545.25
2018-10-16T19:33:19.447Z,100549.30
2018-10-16T19:35:49.005Z,100543.53
2018-10-16T19:38:18.528Z,100550.08
2018-10-16T19:40:48.064Z,100552.22
2018-10-16T19:43:17.566Z,100554.59
2018-10-16T19:45:47.103Z,100552.59
2018-10-16T19:48:16.603Z,100549.23
2018-10-16T19:50:46.135Z,100554.88
2018-10-16T19:53:15.698Z,100556.97
2018-10-16T19:55:45.196Z,100562.30
2018-10-16T19:58:14.819Z,100557.52
2018-10-16T20:00:44.323Z,100559.30
2018-10-16T20:03:13.917Z,100562.75
2018-10-16T20:05:43.371Z,100564.02
2018-10-16T20:08:12.975Z,100564.16
2018-10-16T20:10:42.511Z,100561.30
2018-10-16T20:13:12.124Z,100551.95
2018-10-16T20:15:41.723Z,100554.84
2018-10-16T20:18:11.190Z,100556.93
2018-10-16T20:20:40.734Z,100555.52
2018-10-16T20:23:10.248Z,100552.20
2018-10-16T20:25:39.847Z,100556.74
2018-10-16T20:28:09.390Z,100557.52
2018-10-16T20:30:38.890Z,100558.55
2018-10-16T20:33:08.464Z,100554.41
2018-10-16T20:35:37.963Z,100555.17
2018-10-16T20:38:07.510Z,100552.67
2018-10-16T20:40:37.065Z,100553.72
2018-10-16T20:43:07.005Z,100556.94
2018-10-16T20:45:36.571Z,100558.47
2018-10-16T20:48:06.398Z,100559.77
2018-10-16T20:50:35.955Z,100553.95
2018-10-16T20:53:06.195Z,100553.91
2018-10-16T20:55:35.735Z,100549.23
2018-10-16T20:58:05.323Z,100546.45
2018-10-16T21:00:34.904Z,100551.30
2018-10-16T21:03:04.406Z,100556.97
2018-10-16T21:05:34.032Z,100547.89
2018-10-16T21:08:03.523Z,100550.55
2018-10-16T21:10:33.052Z,100557.30
2018-10-16T21:13:02.717Z,100553.39
2018-10-16T21:15:32.280Z,100557.19
2018-10-16T21:18:01.890Z,100554.64
2018-10-16T21:20:31.431Z,100558.13
2018-10-16T21:23:00.971Z,100559.64
2018-10-16T21:25:30.530Z,100560.92
2018-10-16T21:28:00.078Z,100555.13
2018-10-16T21:30:29.631Z,100558.02
2018-10-16T21:32:59.168Z,100560.14
2018-10-16T21:35:28.707Z,100558.95
2018-10-16T21:37:58.222Z,100552.30
2018-10-16T21:40:27.791Z,100550.03
2018-10-16T21:42:57.314Z,100549.69
2018-10-16T21:45:26.901Z,100550.67
2018-10-16T21:47:56.374Z,100549.78
2018-10-16T21:50:25.972Z,100556.48
2018-10-16T21:52:55.494Z,100553.17
2018-10-16T21:55:25.047Z,100553.39
2018-10-16T21:57:54.571Z,100558.23
2018-10-16T22:00:29.087Z,100553.55
2018-10-16T22:02:58.986Z,100552.41
2018-10-16T22:05:28.495Z,100355.18
2018-10-16T22:07:58.350Z,100551.20
2018-10-16T22:10:27.858Z,100541.91
2018-10-16T22:12:57.411Z,100539.13
2018-10-16T22:15:26.980Z,100540.20
2018-10-16T22:17:56.545Z,100542.92
2018-10-16T22:20:26.050Z,100534.67
2018-10-16T22:22:55.754Z,100543.91
2018-10-16T22:25:25.204Z,100536.28
2018-10-16T22:27:54.770Z,100535.08
2018-10-16T22:30:24.347Z,100533.13
2018-10-16T22:32:53.859Z,100534.70
2018-10-16T22:35:23.386Z,100533.34
2018-10-16T22:37:52.901Z,100532.73
2018-10-16T22:40:22.458Z,100535.67
2018-10-16T22:42:51.993Z,100529.10
2018-10-16T22:45:21.570Z,100531.81
2018-10-16T22:47:51.098Z,100524.13
2018-10-16T22:50:20.618Z,100519.73
2018-10-16T22:52:50.123Z,100521.03
2018-10-16T22:55:19.687Z,100517.71
2018-10-16T22:57:49.272Z,100522.04
2018-10-16T23:00:19.683Z,100515.15
2018-10-16T23:02:49.554Z,100514.27
2018-10-16T23:05:19.075Z,100520.98
2018-10-16T23:07:48.647Z,100517.95
2018-10-16T23:10:18.185Z,100514.34
2018-10-16T23:12:51.857Z,100518.11
2018-10-16T23:15:21.399Z,100525.12
2018-10-16T23:17:51.003Z,100525.05
2018-10-16T23:20:20.625Z,100523.09
2018-10-16T23:22:50.167Z,100522.80
2018-10-16T23:25:19.671Z,100524.31
2018-10-16T23:27:49.214Z,100524.75
2018-10-16T23:30:18.790Z,100521.14
2018-10-16T23:32:48.634Z,100518.86
2018-10-16T23:35:18.165Z,100517.14
2018-10-16T23:37:47.716Z,100517.07
2018-10-16T23:40:17.251Z,100519.19
2018-10-16T23:42:46.798Z,100512.83
2018-10-16T23:45:16.326Z,100510.58
2018-10-16T23:47:45.873Z,100509.36
2018-10-16T23:50:15.403Z,100504.69
2018-10-16T23:52:44.942Z,100503.01
2018-10-16T23:55:14.485Z,100503.98
2018-10-16T23:57:44.023Z,100497.97
